createdAt,value
2023-02-22T00:02:27.231Z,17.75
2023-02-22T00:06:31.202Z,14.20
2023-02-22T00:10:34.435Z,17.98
2023-02-22T00:14:37.813Z,13.40
2023-02-22T00:18:42.629Z,16.10
2023-02-22T00:22:48.128Z,18.27
2023-02-22T00:26:52.711Z,14.02
2023-02-22T00:35:00.542Z,16.52
2023-02-22T00:39:04.105Z,20.60
2023-02-22T00:43:08.009Z,18.35
2023-02-22T00:47:12.668Z,18.05
2023-02-22T00:51:17.888Z,18.42
2023-02-22T00:55:24.868Z,17.98
2023-02-22T00:59:28.349Z,22.02
2023-02-22T01:03:32.839Z,20.75
2023-02-22T01:11:41.846Z,18.52
2023-02-22T01:15:45.550Z,19.55
2023-02-22T01:19:49.092Z,15.45
2023-02-22T01:23:55.405Z,22.63
2023-02-22T01:28:00.139Z,18.70
2023-02-22T01:32:03.774Z,17.40
2023-02-22T01:36:11.678Z,18.65
2023-02-22T01:40:20.611Z,17.13
2023-02-22T01:44:29.622Z,13.93
2023-02-22T01:48:39.277Z,16.88
2023-02-22T01:52:42.912Z,18.73
2023-02-22T01:56:52.797Z,15.18
2023-02-22T02:00:57.740Z,12.55
2023-02-22T02:05:02.157Z,13.85
2023-02-22T02:09:11.332Z,20.02
2023-02-22T02:13:16.960Z,16.50
2023-02-22T02:17:22.296Z,17.95
2023-02-22T02:21:50.225Z,14.57
2023-02-22T02:26:18.759Z,16.65
2023-02-22T02:30:52.670Z,17.85
2023-02-22T02:35:02.843Z,17.48
2023-02-22T02:39:12.059Z,14.27
2023-02-22T02:43:22.584Z,16.10
2023-02-22T02:47:33.814Z,14.65
2023-02-22T02:51:48.913Z,14.25
2023-02-22T02:55:58.346Z,14.90
2023-02-22T03:00:22.956Z,11.75
2023-02-22T03:04:49.166Z,17.35
2023-02-22T03:09:04.539Z,11.40
2023-02-22T03:13:14.847Z,15.48
2023-02-22T03:17:24.283Z,14.40
2023-02-22T03:21:34.328Z,14.93
2023-02-22T03:25:45.744Z,13.85
2023-02-22T03:29:51.110Z,14.02
2023-02-22T03:34:00.176Z,13.25
2023-02-22T03:38:05.273Z,12.40
2023-02-22T03:42:15.133Z,9.80
2023-02-22T03:46:22.603Z,15.15
2023-02-22T03:50:37.697Z,10.75
2023-02-22T03:54:44.525Z,11.50
2023-02-22T03:58:50.851Z,11.13
2023-02-22T04:02:54.697Z,9.50
2023-02-22T04:07:03.726Z,12.43
2023-02-22T04:11:07.660Z,13.45
2023-02-22T04:15:20.177Z,11.57
2023-02-22T04:19:26.369Z,13.82
2023-02-22T04:23:34.741Z,11.05
2023-02-22T04:27:38.313Z,10.20
2023-02-22T04:31:52.955Z,12.13
2023-02-22T04:35:58.017Z,10.90
2023-02-22T04:40:02.132Z,13.35
2023-02-22T04:44:08.905Z,14.57
2023-02-22T04:48:15.957Z,19.65
2023-02-22T04:52:28.221Z,13.88
2023-02-22T04:56:32.042Z,9.40
2023-02-22T05:00:36.166Z,10.90
2023-02-22T05:04:45.565Z,10.50
2023-02-22T05:08:53.455Z,9.30
2023-02-22T05:13:00.108Z,14.80
2023-02-22T05:17:19.273Z,12.32
2023-02-22T05:21:24.922Z,13.10
2023-02-22T05:25:28.917Z,11.10
2023-02-22T05:29:32.873Z,13.95
2023-02-22T05:33:36.929Z,14.23
2023-02-22T05:37:42.562Z,13.20
2023-02-22T05:41:48.923Z,12.77
2023-02-22T05:45:52.624Z,10.57
2023-02-22T05:49:56.508Z,10.32
2023-02-22T05:54:01.664Z,10.15
2023-02-22T05:58:06.765Z,10.82
2023-02-22T06:02:10.440Z,12.73
2023-02-22T06:06:14.502Z,11.82
2023-02-22T06:10:22.450Z,11.93
2023-02-22T06:14:26.322Z,12.88
2023-02-22T06:18:34.345Z,13.20
2023-02-22T06:22:43.357Z,14.20
2023-02-22T06:26:49.437Z,13.63
2023-02-22T06:30:54.904Z,15.57
2023-02-22T06:34:58.997Z,18.20
2023-02-22T06:39:05.952Z,14.45
2023-02-22T06:43:14.109Z,21.17
2023-02-22T06:47:18.368Z,12.45
2023-02-22T06:51:22.427Z,12.45
2023-02-22T06:55:30.693Z,18.83
2023-02-22T06:59:36.449Z,10.95
2023-02-22T07:03:43.720Z,12.77
2023-02-22T07:07:50.581Z,12.80
2023-02-22T07:11:59.916Z,25.48
2023-02-22T07:16:05.473Z,14.32
2023-02-22T07:20:11.728Z,16.00
2023-02-22T07:24:15.636Z,15.18
2023-02-22T07:28:20.301Z,16.58
2023-02-22T07:32:26.960Z,14.90
2023-02-22T07:36:33.685Z,21.25
2023-02-22T07:40:38.228Z,29.08
2023-02-22T07:48:50.061Z,55.83
2023-02-22T07:52:55.286Z,54.60
2023-02-22T07:56:59.178Z,44.15
2023-02-22T08:01:03.863Z,55.45
2023-02-22T08:05:10.724Z,43.78
2023-02-22T08:09:13.774Z,31.67
2023-02-22T08:13:17.418Z,28.38
2023-02-22T08:17:20.644Z,30.58
2023-02-22T08:21:25.191Z,41.13
2023-02-22T08:25:31.353Z,41.03
2023-02-22T08:29:34.604Z,50.45
2023-02-22T08:33:37.622Z,56.47
2023-02-22T08:37:45.456Z,50.45
2023-02-22T08:41:48.514Z,39.38
2023-02-22T08:45:59.782Z,42.80
2023-02-22T08:50:03.215Z,53.95
2023-02-22T08:54:08.063Z,46.90
2023-02-22T08:58:11.114Z,48.10
2023-02-22T09:02:16.902Z,43.30
2023-02-22T09:06:19.970Z,35.10
2023-02-22T09:10:26.167Z,49.92
2023-02-22T09:14:29.611Z,49.75
2023-02-22T09:18:43.497Z,41.25
2023-02-22T09:22:48.470Z,27.17
2023-02-22T09:26:55.240Z,29.30
2023-02-22T09:30:58.290Z,40.65
2023-02-22T09:35:09.856Z,31.83
2023-02-22T09:39:13.127Z,25.20
2023-02-22T09:43:31.241Z,16.38
2023-02-22T09:47:41.172Z,19.70
2023-02-22T09:51:49.494Z,27.30
2023-02-22T09:55:54.156Z,22.30
2023-02-22T10:00:12.959Z,18.27
2023-02-22T10:04:22.111Z,19.35
2023-02-22T10:08:31.366Z,20.80
2023-02-22T10:12:39.505Z,17.55
2023-02-22T10:16:48.275Z,18.80
2023-02-22T10:20:55.790Z,19.63
2023-02-22T10:25:01.861Z,19.60
2023-02-22T10:29:07.695Z,20.13
2023-02-22T10:33:15.728Z,23.88
2023-02-22T10:37:27.393Z,16.80
2023-02-22T10:41:33.442Z,17.98
2023-02-22T10:45:37.260Z,24.30
2023-02-22T10:49:44.668Z,20.13
2023-02-22T10:53:57.370Z,20.05
2023-02-22T10:58:02.376Z,19.08
2023-02-22T11:02:16.229Z,22.17
2023-02-22T11:06:21.854Z,21.27
2023-02-22T11:10:38.658Z,25.38
2023-02-22T11:14:42.706Z,23.13
2023-02-22T11:18:46.072Z,25.35
2023-02-22T11:22:53.496Z,21.75
2023-02-22T11:27:00.900Z,25.70
2023-02-22T11:31:16.311Z,26.17
2023-02-22T11:35:25.026Z,22.60
2023-02-22T11:39:34.391Z,25.67
2023-02-22T11:43:37.797Z,22.83
2023-02-22T11:52:08.019Z,26.75
2023-02-22T11:56:28.410Z,25.17
2023-02-22T12:00:47.336Z,25.02
2023-02-22T12:05:02.523Z,24.55
2023-02-22T12:09:15.741Z,26.60
2023-02-22T12:13:32.631Z,21.77
2023-02-22T12:17:54.289Z,26.02
2023-02-22T12:22:03.466Z,27.42
2023-02-22T12:26:11.848Z,27.55
2023-02-22T12:35:38.458Z,25.75
2023-02-22T12:39:53.720Z,28.33
2023-02-22T12:44:02.416Z,28.65
2023-02-22T12:48:22.644Z,29.60
2023-02-22T12:52:41.326Z,34.28
2023-02-22T12:56:57.070Z,25.35
2023-02-22T13:05:05.632Z,25.52
2023-02-22T13:09:33.498Z,33.13
2023-02-22T13:13:43.092Z,26.92
2023-02-22T13:21:54.596Z,33.45
2023-02-22T13:26:03.760Z,26.05
2023-02-22T13:30:18.290Z,29.10
2023-02-22T13:34:38.608Z,31.17
2023-02-22T13:39:03.779Z,30.65
2023-02-22T13:43:25.434Z,45.85
2023-02-22T13:47:50.924Z,22.73
2023-02-22T13:51:55.790Z,26.30
2023-02-22T13:56:00.573Z,26.95
2023-02-22T14:00:42.701Z,28.92
2023-02-22T14:04:45.997Z,47.15
2023-02-22T14:08:52.181Z,26.48
2023-02-22T14:12:55.681Z,28.63
2023-02-22T14:17:34.191Z,31.10
2023-02-22T14:21:37.840Z,25.40
2023-02-22T14:25:43.788Z,26.08
2023-02-22T14:29:52.016Z,25.67
2023-02-22T14:34:09.530Z,30.63
2023-02-22T14:38:19.594Z,29.25
2023-02-22T14:42:26.141Z,27.65
2023-02-22T14:46:31.664Z,26.13
2023-02-22T14:50:49.233Z,23.17
2023-02-22T14:55:00.495Z,24.77
2023-02-22T14:59:17.307Z,28.05
2023-02-22T15:03:29.359Z,26.90
2023-02-22T15:07:35.836Z,26.63
2023-02-22T15:11:38.708Z,24.50
2023-02-22T15:15:44.678Z,25.67
2023-02-22T15:19:48.686Z,26.92
2023-02-22T15:23:54.762Z,25.80
2023-02-22T15:28:02.577Z,27.15
2023-02-22T15:32:20.218Z,28.77
2023-02-22T15:36:28.360Z,30.88
2023-02-22T15:40:39.123Z,26.85
2023-02-22T15:44:43.978Z,41.53
2023-02-22T15:49:05.622Z,29.80
2023-02-22T15:53:15.668Z,28.73
2023-02-22T15:57:22.946Z,32.75
2023-02-22T16:01:27.240Z,30.38
2023-02-22T16:05:38.399Z,28.35
2023-02-22T16:09:41.214Z,32.38
2023-02-22T16:13:53.332Z,29.77
2023-02-22T16:18:02.429Z,34.05
2023-02-22T16:22:13.649Z,31.55
2023-02-22T16:26:26.713Z,32.75
2023-02-22T16:30:32.937Z,31.27
2023-02-22T16:34:37.068Z,37.67
2023-02-22T16:38:47.394Z,54.75
2023-02-22T16:42:51.554Z,65.40
2023-02-22T16:46:57.775Z,110.50
2023-02-22T16:51:04.087Z,71.50
2023-02-22T16:55:07.925Z,41.60
2023-02-22T16:59:14.244Z,33.50
2023-02-22T17:03:19.648Z,36.60
2023-02-22T17:07:29.867Z,31.80
2023-02-22T17:11:32.917Z,32.53
2023-02-22T17:15:37.461Z,30.95
2023-02-22T17:19:42.159Z,27.30
2023-02-22T17:23:46.025Z,29.90
2023-02-22T17:27:49.654Z,31.55
2023-02-22T17:31:53.764Z,27.88
2023-02-22T17:35:59.787Z,27.83
2023-02-22T17:40:03.124Z,25.15
2023-02-22T17:44:07.375Z,32.33
2023-02-22T17:48:11.136Z,35.97
2023-02-22T17:52:16.043Z,32.63
2023-02-22T17:56:20.356Z,29.58
2023-02-22T18:00:24.426Z,35.10
2023-02-22T18:04:27.695Z,28.30
2023-02-22T18:08:32.639Z,27.73
2023-02-22T18:12:35.472Z,25.13
2023-02-22T18:16:39.496Z,28.38
2023-02-22T18:20:44.472Z,26.50
2023-02-22T18:24:49.032Z,33.72
2023-02-22T18:28:53.869Z,29.55
2023-02-22T18:32:56.917Z,26.05
2023-02-22T18:37:01.047Z,28.73
2023-02-22T18:41:07.444Z,26.92
2023-02-22T18:45:12.045Z,24.73
2023-02-22T18:49:15.435Z,25.65
2023-02-22T18:53:18.589Z,26.75
2023-02-22T18:57:23.248Z,28.27
2023-02-22T19:01:26.754Z,25.33
2023-02-22T19:05:29.952Z,26.55
2023-02-22T19:09:33.316Z,40.08
2023-02-22T19:13:38.868Z,25.88
2023-02-22T19:17:42.973Z,26.90
2023-02-22T19:21:46.663Z,23.13
2023-02-22T19:25:53.116Z,30.02
2023-02-22T19:29:58.900Z,26.92
2023-02-22T19:34:04.684Z,25.63
2023-02-22T19:38:23.839Z,27.75
2023-02-22T19:42:28.604Z,36.17
2023-02-22T19:46:37.999Z,35.85
2023-02-22T19:50:49.314Z,38.65
2023-02-22T19:54:53.891Z,41.65
2023-02-22T19:58:59.604Z,28.08
2023-02-22T20:03:11.212Z,27.60
2023-02-22T20:07:14.703Z,29.83
2023-02-22T20:11:20.940Z,28.45
2023-02-22T20:15:25.032Z,31.80
2023-02-22T20:19:30.813Z,39.63
2023-02-22T20:23:35.199Z,91.75
2023-02-22T20:27:42.031Z,78.20
2023-02-22T20:31:49.979Z,65.03
2023-02-22T20:35:55.545Z,75.30
2023-02-22T20:40:00.423Z,82.20
2023-02-22T20:44:05.653Z,56.40
2023-02-22T20:48:09.548Z,61.13
2023-02-22T20:52:15.330Z,69.60
2023-02-22T20:56:24.795Z,122.00
2023-02-22T21:00:39.092Z,42.03
2023-02-22T21:04:43.068Z,34.45
2023-02-22T21:08:55.369Z,37.42
2023-02-22T21:13:03.702Z,35.10
2023-02-22T21:17:09.959Z,32.70
2023-02-22T21:21:15.551Z,33.33
2023-02-22T21:25:20.372Z,41.50
2023-02-22T21:29:23.612Z,33.13
2023-02-22T21:33:30.176Z,34.45
2023-02-22T21:37:34.966Z,37.00
2023-02-22T21:41:41.420Z,35.90
2023-02-22T21:45:44.592Z,34.55
2023-02-22T21:49:51.202Z,37.85
2023-02-22T21:53:56.464Z,36.58
2023-02-22T21:58:04.318Z,36.25
2023-02-22T22:02:07.812Z,36.22
2023-02-22T22:06:13.764Z,39.97
2023-02-22T22:10:24.701Z,54.05
2023-02-22T22:14:30.003Z,36.30
2023-02-22T22:18:33.417Z,36.80
2023-02-22T22:22:39.437Z,38.28
2023-02-22T22:26:44.111Z,33.00
2023-02-22T22:30:50.393Z,32.15
2023-02-22T22:34:56.638Z,39.53
2023-02-22T22:38:59.894Z,36.58
2023-02-22T22:43:06.261Z,106.43
2023-02-22T22:47:12.747Z,48.03
2023-02-22T22:51:18.834Z,42.78
2023-02-22T22:55:24.492Z,40.20
2023-02-22T22:59:28.253Z,42.13
2023-02-22T23:07:37.489Z,38.08
2023-02-22T23:11:45.135Z,37.35
2023-02-22T23:15:49.031Z,33.70
2023-02-22T23:23:58.578Z,38.90
2023-02-22T23:28:02.271Z,43.13
2023-02-22T23:32:06.136Z,35.13
2023-02-22T23:36:13.076Z,81.35
2023-02-22T23:40:18.911Z,34.03
2023-02-22T23:44:22.307Z,36.13
2023-02-22T23:48:28.175Z,42.05
2023-02-22T23:52:32.856Z,36.20
2023-02-22T23:56:38.135Z,31.48
